sensor_id;sensor_type;location;lat;lon;timestamp;temperature;humidity
50606;DHT22;36557;53.572;10.170;2023-04-03T06:59:35;2.10;99.90
50606;DHT22;36557;53.572;10.170;2023-04-03T07:02:02;2.00;99.90
50606;DHT22;36557;53.572;10.170;2023-04-03T07:04:27;2.10;99.90
50606;DHT22;36557;53.572;10.170;2023-04-03T07:06:53;2.20;99.90
50606;DHT22;36557;53.572;10.170;2023-04-03T07:09:19;2.30;99.90
50606;DHT22;36557;53.572;10.170;2023-04-03T07:11:45;2.50;99.90
50606;DHT22;36557;53.572;10.170;2023-04-03T07:14:11;2.60;99.90
50606;DHT22;36557;53.572;10.170;2023-04-03T07:16:36;2.80;99.90
50606;DHT22;36557;53.572;10.170;2023-04-03T07:19:03;2.90;99.90
50606;DHT22;36557;53.572;10.170;2023-04-03T07:21:29;2.90;99.90
50606;DHT22;36557;53.572;10.170;2023-04-03T07:23:55;3.00;99.90
50606;DHT22;36557;53.572;10.170;2023-04-03T07:26:21;3.00;99.90
50606;DHT22;36557;53.572;10.170;2023-04-03T07:28:48;3.10;99.90
50606;DHT22;36557;53.572;10.170;2023-04-03T07:31:16;3.30;99.90
50606;DHT22;36557;53.572;10.170;2023-04-03T07:33:43;3.40;99.90
50606;DHT22;36557;53.572;10.170;2023-04-03T07:36:10;3.50;99.90
50606;DHT22;36557;53.572;10.170;2023-04-03T07:38:36;3.60;99.90
50606;DHT22;36557;53.572;10.170;2023-04-03T07:41:02;3.60;99.90
50606;DHT22;36557;53.572;10.170;2023-04-03T07:43:27;3.80;99.90
50606;DHT22;36557;53.572;10.170;2023-04-03T07:45:53;3.80;99.90
50606;DHT22;36557;53.572;10.170;2023-04-03T07:48:24;3.90;99.90
50606;DHT22;36557;53.572;10.170;2023-04-03T07:50:51;3.90;99.90
50606;DHT22;36557;53.572;10.170;2023-04-03T07:53:17;4.10;99.90
50606;DHT22;36557;53.572;10.170;2023-04-03T07:55:45;4.30;99.90
50606;DHT22;36557;53.572;10.170;2023-04-03T07:58:17;4.40;99.90
50606;DHT22;36557;53.572;10.170;2023-04-03T08:00:45;4.40;99.90
50606;DHT22;36557;53.572;10.170;2023-04-03T08:03:11;4.50;99.90
50606;DHT22;36557;53.572;10.170;2023-04-03T08:05:39;4.60;99.90
50606;DHT22;36557;53.572;10.170;2023-04-03T08:08:06;4.50;99.90
50606;DHT22;36557;53.572;10.170;2023-04-03T08:10:33;4.60;99.90
50606;DHT22;36557;53.572;10.170;2023-04-03T08:12:59;4.90;99.90
50606;DHT22;36557;53.572;10.170;2023-04-03T08:15:25;5.00;99.90
50606;DHT22;36557;53.572;10.170;2023-04-03T08:17:52;5.10;99.90
50606;DHT22;36557;53.572;10.170;2023-04-03T08:20:18;4.90;99.90
50606;DHT22;36557;53.572;10.170;2023-04-03T08:22:43;4.80;99.90
50606;DHT22;36557;53.572;10.170;2023-04-03T08:25:09;4.90;99.90
50606;DHT22;36557;53.572;10.170;2023-04-03T08:27:35;5.00;99.90
50606;DHT22;36557;53.572;10.170;2023-04-03T08:30:01;5.20;99.90
50606;DHT22;36557;53.572;10.170;2023-04-03T08:32:27;5.20;99.90
50606;DHT22;36557;53.572;10.170;2023-04-03T08:34:53;5.40;99.90
50606;DHT22;36557;53.572;10.170;2023-04-03T08:37:19;5.40;99.90
50606;DHT22;36557;53.572;10.170;2023-04-03T08:39:45;5.70;99.90
50606;DHT22;36557;53.572;10.170;2023-04-03T08:45:45;5.90;98.80
50606;DHT22;36557;53.572;10.170;2023-04-03T08:50:53;6.00;98.50
50606;DHT22;36557;53.572;10.170;2023-04-03T08:53:28;5.90;96.10
50606;DHT22;36557;53.572;10.170;2023-04-03T08:55:58;6.00;97.50
50606;DHT22;36557;53.572;10.170;2023-04-03T08:58:30;6.00;95.20
50606;DHT22;36557;53.572;10.170;2023-04-03T09:01:02;6.00;95.90
50606;DHT22;36557;53.572;10.170;2023-04-03T09:03:32;5.90;95.00
50606;DHT22;36557;53.572;10.170;2023-04-03T09:06:26;5.90;93.80
50606;DHT22;36557;53.572;10.170;2023-04-03T09:14:36;6.20;94.20
50606;DHT22;36557;53.572;10.170;2023-04-03T09:17:09;6.50;96.60
50606;DHT22;36557;53.572;10.170;2023-04-03T09:19:54;7.00;95.00
50606;DHT22;36557;53.572;10.170;2023-04-03T09:22:27;6.90;94.90
50606;DHT22;36557;53.572;10.170;2023-04-03T09:25:10;6.80;92.00
50606;DHT22;36557;53.572;10.170;2023-04-03T09:27:38;6.70;92.80
50606;DHT22;36557;53.572;10.170;2023-04-03T09:30:04;6.70;91.30
50606;DHT22;36557;53.572;10.170;2023-04-03T09:32:35;6.70;91.80
50606;DHT22;36557;53.572;10.170;2023-04-03T09:35:28;6.70;91.10
50606;DHT22;36557;53.572;10.170;2023-04-03T09:40:40;7.20;90.90
50606;DHT22;36557;53.572;10.170;2023-04-03T09:43:23;7.10;90.10
50606;DHT22;36557;53.572;10.170;2023-04-03T09:45:50;6.80;91.30
50606;DHT22;36557;53.572;10.170;2023-04-03T09:53:40;7.10;92.10
50606;DHT22;36557;53.572;10.170;2023-04-03T10:01:36;7.10;91.60
50606;DHT22;36557;53.572;10.170;2023-04-03T10:04:16;8.00;91.60
50606;DHT22;36557;53.572;10.170;2023-04-03T10:06:48;8.40;91.50
50606;DHT22;36557;53.572;10.170;2023-04-03T10:14:28;7.50;90.90
50606;DHT22;36557;53.572;10.170;2023-04-03T10:17:18;7.30;88.00
50606;DHT22;36557;53.572;10.170;2023-04-03T10:23:14;7.90;91.20
50606;DHT22;36557;53.572;10.170;2023-04-03T10:25:47;8.30;92.50
50606;DHT22;36557;53.572;10.170;2023-04-03T10:33:39;7.60;86.40
50606;DHT22;36557;53.572;10.170;2023-04-03T10:36:21;7.30;90.50
50606;DHT22;36557;53.572;10.170;2023-04-03T10:38:57;6.60;89.00
50606;DHT22;36557;53.572;10.170;2023-04-03T10:41:52;6.30;89.60
50606;DHT22;36557;53.572;10.170;2023-04-03T10:47:22;7.50;91.50
50606;DHT22;36557;53.572;10.170;2023-04-03T10:50:29;8.10;90.80
50606;DHT22;36557;53.572;10.170;2023-04-03T10:55:42;8.00;92.50
50606;DHT22;36557;53.572;10.170;2023-04-03T10:58:19;7.50;89.70
50606;DHT22;36557;53.572;10.170;2023-04-03T11:00:48;8.00;90.80
50606;DHT22;36557;53.572;10.170;2023-04-03T11:03:36;8.20;88.40
50606;DHT22;36557;53.572;10.170;2023-04-03T11:06:08;8.10;89.30
50606;DHT22;36557;53.572;10.170;2023-04-03T11:08:56;8.80;92.10
50606;DHT22;36557;53.572;10.170;2023-04-03T11:11:34;8.80;87.80
50606;DHT22;36557;53.572;10.170;2023-04-03T11:16:47;10.30;91.70
50606;DHT22;36557;53.572;10.170;2023-04-03T11:19:22;9.90;88.40
50606;DHT22;36557;53.572;10.170;2023-04-03T11:22:00;8.40;85.00
50606;DHT22;36557;53.572;10.170;2023-04-03T11:24:29;7.60;89.20
50606;DHT22;36557;53.572;10.170;2023-04-03T11:26:58;7.70;89.90
50606;DHT22;36557;53.572;10.170;2023-04-03T11:29:34;7.70;89.90
50606;DHT22;36557;53.572;10.170;2023-04-03T11:34:57;7.40;91.60
50606;DHT22;36557;53.572;10.170;2023-04-03T11:37:39;7.00;90.90
50606;DHT22;36557;53.572;10.170;2023-04-03T11:40:21;7.10;88.20
50606;DHT22;36557;53.572;10.170;2023-04-03T11:42:51;7.00;90.10
50606;DHT22;36557;53.572;10.170;2023-04-03T11:48:03;7.90;87.90
50606;DHT22;36557;53.572;10.170;2023-04-03T12:05:52;9.30;81.50
50606;DHT22;36557;53.572;10.170;2023-04-03T12:08:45;9.50;85.10
50606;DHT22;36557;53.572;10.170;2023-04-03T12:16:29;9.40;80.60
50606;DHT22;36557;53.572;10.170;2023-04-03T12:19:31;9.50;83.00
50606;DHT22;36557;53.572;10.170;2023-04-03T12:24:31;9.20;80.90
50606;DHT22;36557;53.572;10.170;2023-04-03T12:29:38;8.40;83.10
50606;DHT22;36557;53.572;10.170;2023-04-03T12:46:48;8.70;80.90
50606;DHT22;36557;53.572;10.170;2023-04-03T12:51:55;9.60;83.00
50606;DHT22;36557;53.572;10.170;2023-04-03T12:54:36;9.50;79.30
50606;DHT22;36557;53.572;10.170;2023-04-03T12:57:17;9.10;79.90
50606;DHT22;36557;53.572;10.170;2023-04-03T12:59:43;9.50;79.30
50606;DHT22;36557;53.572;10.170;2023-04-03T13:02:26;8.90;80.70
50606;DHT22;36557;53.572;10.170;2023-04-03T13:04:58;9.10;81.80
50606;DHT22;36557;53.572;10.170;2023-04-03T13:07:26;8.60;79.20
50606;DHT22;36557;53.572;10.170;2023-04-03T13:10:02;7.80;80.40
50606;DHT22;36557;53.572;10.170;2023-04-03T13:12:28;8.60;82.00
50606;DHT22;36557;53.572;10.170;2023-04-03T13:14:56;9.20;83.20
50606;DHT22;36557;53.572;10.170;2023-04-03T13:17:23;9.00;78.30
50606;DHT22;36557;53.572;10.170;2023-04-03T13:19:50;9.00;81.20
50606;DHT22;36557;53.572;10.170;2023-04-03T13:24:43;9.30;77.30
50606;DHT22;36557;53.572;10.170;2023-04-03T13:27:11;9.40;79.10
50606;DHT22;36557;53.572;10.170;2023-04-03T13:29:38;9.20;76.00
50606;DHT22;36557;53.572;10.170;2023-04-03T13:32:05;9.50;80.50
50606;DHT22;36557;53.572;10.170;2023-04-03T13:34:41;9.10;79.10
50606;DHT22;36557;53.572;10.170;2023-04-03T13:37:20;9.10;77.90
50606;DHT22;36557;53.572;10.170;2023-04-03T13:39:57;8.40;75.90
50606;DHT22;36557;53.572;10.170;2023-04-03T13:45:10;8.70;76.70
50606;DHT22;36557;53.572;10.170;2023-04-03T13:47:41;8.90;78.00
50606;DHT22;36557;53.572;10.170;2023-04-03T13:50:18;8.60;78.90
50606;DHT22;36557;53.572;10.170;2023-04-03T13:53:11;8.80;77.80
50606;DHT22;36557;53.572;10.170;2023-04-03T13:55:35;8.40;77.10
50606;DHT22;36557;53.572;10.170;2023-04-03T14:00:52;8.20;77.90
50606;DHT22;36557;53.572;10.170;2023-04-03T14:03:37;8.40;75.80
50606;DHT22;36557;53.572;10.170;2023-04-03T14:06:07;8.40;76.40
50606;DHT22;36557;53.572;10.170;2023-04-03T14:08:34;8.80;76.00
50606;DHT22;36557;53.572;10.170;2023-04-03T14:11:00;8.20;72.10
50606;DHT22;36557;53.572;10.170;2023-04-03T14:13:26;8.30;75.10
50606;DHT22;36557;53.572;10.170;2023-04-03T14:15:52;8.50;75.80
50606;DHT22;36557;53.572;10.170;2023-04-03T14:18:19;9.20;77.10
50606;DHT22;36557;53.572;10.170;2023-04-03T14:20:46;9.10;71.60
50606;DHT22;36557;53.572;10.170;2023-04-03T14:23:12;9.10;75.60
50606;DHT22;36557;53.572;10.170;2023-04-03T14:25:39;9.40;74.60
50606;DHT22;36557;53.572;10.170;2023-04-03T14:28:16;8.90;73.60
50606;DHT22;36557;53.572;10.170;2023-04-03T14:30:42;8.10;73.40
50606;DHT22;36557;53.572;10.170;2023-04-03T14:33:14;8.20;76.80
50606;DHT22;36557;53.572;10.170;2023-04-03T14:35:41;8.00;72.70
50606;DHT22;36557;53.572;10.170;2023-04-03T14:40:47;8.40;74.20
50606;DHT22;36557;53.572;10.170;2023-04-03T14:43:13;8.50;74.00
50606;DHT22;36557;53.572;10.170;2023-04-03T14:45:39;8.20;72.80
50606;DHT22;36557;53.572;10.170;2023-04-03T14:48:06;8.20;75.50
50606;DHT22;36557;53.572;10.170;2023-04-03T14:50:35;8.90;76.70
50606;DHT22;36557;53.572;10.170;2023-04-03T14:53:01;9.40;76.00
50606;DHT22;36557;53.572;10.170;2023-04-03T14:55:27;8.70;75.00
50606;DHT22;36557;53.572;10.170;2023-04-03T14:57:53;8.30;75.10
50606;DHT22;36557;53.572;10.170;2023-04-03T15:00:21;9.20;79.80
50606;DHT22;36557;53.572;10.170;2023-04-03T15:02:47;8.80;77.70
50606;DHT22;36557;53.572;10.170;2023-04-03T15:05:13;8.20;75.20
50606;DHT22;36557;53.572;10.170;2023-04-03T15:07:42;8.20;79.10
50606;DHT22;36557;53.572;10.170;2023-04-03T15:10:18;8.40;80.40
50606;DHT22;36557;53.572;10.170;2023-04-03T15:12:45;9.10;81.20
50606;DHT22;36557;53.572;10.170;2023-04-03T15:15:11;9.00;78.00
50606;DHT22;36557;53.572;10.170;2023-04-03T15:17:38;8.50;77.60
50606;DHT22;36557;53.572;10.170;2023-04-03T15:20:14;9.00;77.40
50606;DHT22;36557;53.572;10.170;2023-04-03T15:22:39;8.50;76.90
50606;DHT22;36557;53.572;10.170;2023-04-03T15:25:05;8.00;76.80
50606;DHT22;36557;53.572;10.170;2023-04-03T15:27:31;8.00;79.10
50606;DHT22;36557;53.572;10.170;2023-04-03T15:29:57;7.90;77.70
50606;DHT22;36557;53.572;10.170;2023-04-03T15:32:22;8.30;78.20
50606;DHT22;36557;53.572;10.170;2023-04-03T15:34:48;8.30;77.60
50606;DHT22;36557;53.572;10.170;2023-04-03T15:37:14;8.10;80.00
50606;DHT22;36557;53.572;10.170;2023-04-03T15:39:39;7.90;79.70
50606;DHT22;36557;53.572;10.170;2023-04-03T15:42:05;7.50;78.70
50606;DHT22;36557;53.572;10.170;2023-04-03T15:44:35;7.40;81.20
50606;DHT22;36557;53.572;10.170;2023-04-03T15:47:01;7.20;82.80
50606;DHT22;36557;53.572;10.170;2023-04-03T15:49:28;7.10;82.00
50606;DHT22;36557;53.572;10.170;2023-04-03T15:51:53;7.40;82.80
50606;DHT22;36557;53.572;10.170;2023-04-03T15:54:19;7.50;82.50
50606;DHT22;36557;53.572;10.170;2023-04-03T15:56:45;7.60;82.70
50606;DHT22;36557;53.572;10.170;2023-04-03T15:59:11;7.20;82.70
50606;DHT22;36557;53.572;10.170;2023-04-03T16:01:37;7.30;84.30
50606;DHT22;36557;53.572;10.170;2023-04-03T16:04:05;7.50;84.30
50606;DHT22;36557;53.572;10.170;2023-04-03T16:06:32;7.50;83.20
50606;DHT22;36557;53.572;10.170;2023-04-03T16:11:26;7.50;81.90
50606;DHT22;36557;53.572;10.170;2023-04-03T16:13:53;7.50;83.10
50606;DHT22;36557;53.572;10.170;2023-04-03T16:16:19;7.70;82.30
50606;DHT22;36557;53.572;10.170;2023-04-03T16:18:45;7.40;82.20
50606;DHT22;36557;53.572;10.170;2023-04-03T16:21:13;7.60;82.00
50606;DHT22;36557;53.572;10.170;2023-04-03T16:23:40;7.50;81.60
50606;DHT22;36557;53.572;10.170;2023-04-03T16:26:07;7.10;80.40
50606;DHT22;36557;53.572;10.170;2023-04-03T16:28:32;6.80;82.90
50606;DHT22;36557;53.572;10.170;2023-04-03T16:30:59;6.60;82.80
50606;DHT22;36557;53.572;10.170;2023-04-03T16:33:26;6.70;85.70
50606;DHT22;36557;53.572;10.170;2023-04-03T16:35:52;7.00;85.80
50606;DHT22;36557;53.572;10.170;2023-04-03T16:38:18;6.80;86.70
50606;DHT22;36557;53.572;10.170;2023-04-03T16:40:45;6.80;87.20
50606;DHT22;36557;53.572;10.170;2023-04-03T16:43:10;6.50;87.50
50606;DHT22;36557;53.572;10.170;2023-04-03T16:45:36;6.80;89.90
50606;DHT22;36557;53.572;10.170;2023-04-03T16:48:03;7.00;88.70
50606;DHT22;36557;53.572;10.170;2023-04-03T16:50:28;6.40;88.70
50606;DHT22;36557;53.572;10.170;2023-04-03T16:52:54;6.00;89.30
50606;DHT22;36557;53.572;10.170;2023-04-03T16:55:20;6.00;89.70
50606;DHT22;36557;53.572;10.170;2023-04-03T16:57:46;6.20;90.40
50606;DHT22;36557;53.572;10.170;2023-04-03T17:00:12;6.10;89.40
50606;DHT22;36557;53.572;10.170;2023-04-03T17:02:39;6.00;88.70
50606;DHT22;36557;53.572;10.170;2023-04-03T17:05:05;6.10;88.80
50606;DHT22;36557;53.572;10.170;2023-04-03T17:07:32;6.10;90.10
50606;DHT22;36557;53.572;10.170;2023-04-03T17:09:58;6.10;88.30
50606;DHT22;36557;53.572;10.170;2023-04-03T17:12:23;5.90;88.50
50606;DHT22;36557;53.572;10.170;2023-04-03T17:14:49;5.80;87.40
50606;DHT22;36557;53.572;10.170;2023-04-03T17:17:18;5.90;89.00
50606;DHT22;36557;53.572;10.170;2023-04-03T17:19:45;5.70;87.50
50606;DHT22;36557;53.572;10.170;2023-04-03T17:22:11;5.70;87.70
50606;DHT22;36557;53.572;10.170;2023-04-03T17:24:37;5.70;86.00
50606;DHT22;36557;53.572;10.170;2023-04-03T17:27:02;5.70;87.50
50606;DHT22;36557;53.572;10.170;2023-04-03T17:29:28;5.60;87.00
50606;DHT22;36557;53.572;10.170;2023-04-03T17:31:54;5.50;87.90
50606;DHT22;36557;53.572;10.170;2023-04-03T17:34:20;5.40;86.80
50606;DHT22;36557;53.572;10.170;2023-04-03T17:36:46;5.20;88.80
50606;DHT22;36557;53.572;10.170;2023-04-03T17:39:11;5.20;88.90
50606;DHT22;36557;53.572;10.170;2023-04-03T17:41:37;5.00;87.90
50606;DHT22;36557;53.572;10.170;2023-04-03T17:44:03;5.00;89.70
50606;DHT22;36557;53.572;10.170;2023-04-03T17:46:29;4.90;90.10
50606;DHT22;36557;53.572;10.170;2023-04-03T17:48:55;4.90;90.50
50606;DHT22;36557;53.572;10.170;2023-04-03T17:53:50;4.60;90.80
50606;DHT22;36557;53.572;10.170;2023-04-03T17:56:18;4.60;90.60
50606;DHT22;36557;53.572;10.170;2023-04-03T17:58:45;4.50;91.00
50606;DHT22;36557;53.572;10.170;2023-04-03T18:01:15;4.50;91.50
50606;DHT22;36557;53.572;10.170;2023-04-03T18:03:41;4.40;91.30
50606;DHT22;36557;53.572;10.170;2023-04-03T18:06:13;4.30;91.80
50606;DHT22;36557;53.572;10.170;2023-04-03T18:08:43;4.30;91.80
50606;DHT22;36557;53.572;10.170;2023-04-03T18:11:09;4.20;92.00
50606;DHT22;36557;53.572;10.170;2023-04-03T18:13:36;4.20;92.70
50606;DHT22;36557;53.572;10.170;2023-04-03T18:16:05;4.10;92.50
50606;DHT22;36557;53.572;10.170;2023-04-03T18:18:31;4.10;93.20
50606;DHT22;36557;53.572;10.170;2023-04-03T18:20:57;4.00;93.30
50606;DHT22;36557;53.572;10.170;2023-04-03T18:23:24;4.10;93.70
50606;DHT22;36557;53.572;10.170;2023-04-03T18:25:51;4.00;93.80
50606;DHT22;36557;53.572;10.170;2023-04-03T18:28:16;3.90;94.20
50606;DHT22;36557;53.572;10.170;2023-04-03T18:30:42;3.90;94.50
50606;DHT22;36557;53.572;10.170;2023-04-03T18:33:08;3.80;94.80
50606;DHT22;36557;53.572;10.170;2023-04-03T18:35:34;3.70;95.30
50606;DHT22;36557;53.572;10.170;2023-04-03T18:37:59;3.90;95.20
50606;DHT22;36557;53.572;10.170;2023-04-03T18:40:25;3.70;95.40
50606;DHT22;36557;53.572;10.170;2023-04-03T18:42:51;3.60;95.70
50606;DHT22;36557;53.572;10.170;2023-04-03T18:45:21;3.70;96.40
50606;DHT22;36557;53.572;10.170;2023-04-03T18:47:47;3.70;96.00
50606;DHT22;36557;53.572;10.170;2023-04-03T18:50:13;3.70;96.30
50606;DHT22;36557;53.572;10.170;2023-04-03T18:52:40;3.60;96.30
50606;DHT22;36557;53.572;10.170;2023-04-03T18:55:06;3.70;96.60
50606;DHT22;36557;53.572;10.170;2023-04-03T18:57:32;3.70;96.80
